sensor_id;sensor_type;location;lat;lon;timestamp;pressure;altitude;pressure_sealevel;temperature;humidity
68508;BME280;55510;49.560;19.090;2022-12-07T00:02:42;96017.50;;;0.13;99.47
68508;BME280;55510;49.560;19.090;2022-12-07T00:05:43;96012.84;;;0.08;99.49
68508;BME280;55510;49.560;19.090;2022-12-07T00:08:45;96004.56;;;0.05;100.00
68508;BME280;55510;49.560;19.090;2022-12-07T00:11:49;96011.59;;;0.04;100.00
68508;BME280;55510;49.560;19.090;2022-12-07T00:14:50;96003.00;;;0.10;99.65
68508;BME280;55510;49.560;19.090;2022-12-07T00:17:50;96001.38;;;0.09;99.53
68508;BME280;55510;49.560;19.090;2022-12-07T00:20:51;96004.91;;;0.02;100.00
68508;BME280;55510;49.560;19.090;2022-12-07T00:23:53;96001.69;;;-0.01;100.00
68508;BME280;55510;49.560;19.090;2022-12-07T00:26:54;96003.38;;;0.07;100.00
68508;BME280;55510;49.560;19.090;2022-12-07T00:29:54;96002.94;;;0.04;100.00
68508;BME280;55510;49.560;19.090;2022-12-07T00:32:55;96005.16;;;0.07;100.00
68508;BME280;55510;49.560;19.090;2022-12-07T00:35:57;96002.56;;;0.07;100.00
68508;BME280;55510;49.560;19.090;2022-12-07T00:39:00;96006.00;;;0.07;100.00
68508;BME280;55510;49.560;19.090;2022-12-07T00:42:03;96002.44;;;0.15;100.00
68508;BME280;55510;49.560;19.090;2022-12-07T00:45:04;95995.66;;;0.21;100.00
68508;BME280;55510;49.560;19.090;2022-12-07T00:48:05;95995.66;;;0.21;100.00
68508;BME280;55510;49.560;19.090;2022-12-07T00:51:06;95996.25;;;0.23;100.00
68508;BME280;55510;49.560;19.090;2022-12-07T00:54:07;95988.66;;;0.28;100.00
68508;BME280;55510;49.560;19.090;2022-12-07T00:57:08;95989.91;;;0.32;100.00
68508;BME280;55510;49.560;19.090;2022-12-07T01:00:09;95979.44;;;0.32;100.00
68508;BME280;55510;49.560;19.090;2022-12-07T01:03:12;95979.88;;;0.36;100.00
68508;BME280;55510;49.560;19.090;2022-12-07T01:06:18;95978.66;;;0.38;100.00
68508;BME280;55510;49.560;19.090;2022-12-07T01:09:19;95975.88;;;0.40;100.00
68508;BME280;55510;49.560;19.090;2022-12-07T01:12:20;95980.28;;;0.39;100.00
68508;BME280;55510;49.560;19.090;2022-12-07T01:15:21;95972.19;;;0.34;100.00
68508;BME280;55510;49.560;19.090;2022-12-07T01:18:21;95976.44;;;0.35;100.00
68508;BME280;55510;49.560;19.090;2022-12-07T01:21:28;95973.03;;;0.35;100.00
68508;BME280;55510;49.560;19.090;2022-12-07T01:24:28;95973.81;;;0.35;100.00
68508;BME280;55510;49.560;19.090;2022-12-07T01:27:29;95962.97;;;0.38;100.00
68508;BME280;55510;49.560;19.090;2022-12-07T01:30:30;95968.19;;;0.38;100.00
68508;BME280;55510;49.560;19.090;2022-12-07T01:33:34;95965.03;;;0.43;100.00
68508;BME280;55510;49.560;19.090;2022-12-07T01:36:36;95967.47;;;0.45;100.00
68508;BME280;55510;49.560;19.090;2022-12-07T01:39:37;95970.69;;;0.47;100.00
68508;BME280;55510;49.560;19.090;2022-12-07T01:42:37;95961.25;;;0.52;99.15
68508;BME280;55510;49.560;19.090;2022-12-07T01:45:40;95962.72;;;0.55;98.91
68508;BME280;55510;49.560;19.090;2022-12-07T01:48:42;95961.50;;;0.57;98.50
68508;BME280;55510;49.560;19.090;2022-12-07T01:51:45;95960.16;;;0.68;97.08
68508;BME280;55510;49.560;19.090;2022-12-07T01:54:48;95964.34;;;0.63;96.99
68508;BME280;55510;49.560;19.090;2022-12-07T01:57:52;95957.00;;;0.73;96.96
68508;BME280;55510;49.560;19.090;2022-12-07T02:00:53;95951.94;;;0.71;96.94
68508;BME280;55510;49.560;19.090;2022-12-07T02:03:55;95942.84;;;0.67;97.10
68508;BME280;55510;49.560;19.090;2022-12-07T02:06:56;95948.25;;;0.66;97.36
68508;BME280;55510;49.560;19.090;2022-12-07T02:13:26;95950.88;;;0.66;97.51
68508;BME280;55510;49.560;19.090;2022-12-07T02:29:58;95934.81;;;0.76;97.08
68508;BME280;55510;49.560;19.090;2022-12-07T02:33:04;95937.44;;;0.76;96.72
68508;BME280;55510;49.560;19.090;2022-12-07T02:39:31;95933.44;;;0.80;96.56
68508;BME280;55510;49.560;19.090;2022-12-07T02:42:43;95935.03;;;0.74;97.16
68508;BME280;55510;49.560;19.090;2022-12-07T02:45:47;95940.50;;;0.79;96.26
68508;BME280;55510;49.560;19.090;2022-12-07T02:48:51;95928.19;;;0.80;96.13
68508;BME280;55510;49.560;19.090;2022-12-07T02:51:53;95931.59;;;0.74;96.69
68508;BME280;55510;49.560;19.090;2022-12-07T02:54:54;95929.41;;;0.77;96.22
68508;BME280;55510;49.560;19.090;2022-12-07T02:58:05;95932.41;;;0.74;96.78
68508;BME280;55510;49.560;19.090;2022-12-07T03:08:21;95915.31;;;0.78;96.72
68508;BME280;55510;49.560;19.090;2022-12-07T03:11:55;95923.78;;;0.80;96.74
68508;BME280;55510;49.560;19.090;2022-12-07T03:18:19;95920.53;;;0.78;96.60
68508;BME280;55510;49.560;19.090;2022-12-07T03:21:26;95926.97;;;0.76;96.97
68508;BME280;55510;49.560;19.090;2022-12-07T03:24:31;95934.66;;;0.77;96.72
68508;BME280;55510;49.560;19.090;2022-12-07T03:27:39;95917.72;;;0.80;96.84
68508;BME280;55510;49.560;19.090;2022-12-07T03:30:47;95924.56;;;0.74;96.78
68508;BME280;55510;49.560;19.090;2022-12-07T03:37:20;95929.41;;;0.77;97.07
68508;BME280;55510;49.560;19.090;2022-12-07T03:40:41;95923.97;;;0.79;96.84
68508;BME280;55510;49.560;19.090;2022-12-07T03:43:44;95924.97;;;0.78;97.16
68508;BME280;55510;49.560;19.090;2022-12-07T03:54:02;95914.94;;;0.88;95.70
68508;BME280;55510;49.560;19.090;2022-12-07T03:57:07;95913.09;;;0.82;97.04
68508;BME280;55510;49.560;19.090;2022-12-07T04:00:10;95908.25;;;0.79;97.22
68508;BME280;55510;49.560;19.090;2022-12-07T04:03:11;95909.69;;;0.81;97.07
68508;BME280;55510;49.560;19.090;2022-12-07T04:06:12;95913.75;;;0.91;97.14
68508;BME280;55510;49.560;19.090;2022-12-07T04:09:13;95908.69;;;0.82;96.95
68508;BME280;55510;49.560;19.090;2022-12-07T04:12:15;95909.84;;;0.73;97.73
68508;BME280;55510;49.560;19.090;2022-12-07T04:15:15;95917.69;;;0.73;97.87
68508;BME280;55510;49.560;19.090;2022-12-07T04:18:16;95919.28;;;0.67;98.21
68508;BME280;55510;49.560;19.090;2022-12-07T04:21:16;95912.41;;;0.66;98.79
68508;BME280;55510;49.560;19.090;2022-12-07T04:24:17;95912.22;;;0.68;99.07
68508;BME280;55510;49.560;19.090;2022-12-07T04:27:18;95912.47;;;0.73;98.50
68508;BME280;55510;49.560;19.090;2022-12-07T04:30:19;95918.88;;;0.70;98.21
68508;BME280;55510;49.560;19.090;2022-12-07T04:33:19;95922.56;;;0.76;97.34
68508;BME280;55510;49.560;19.090;2022-12-07T04:36:20;95924.94;;;0.71;97.59
68508;BME280;55510;49.560;19.090;2022-12-07T04:39:27;95924.16;;;0.77;98.14
68508;BME280;55510;49.560;19.090;2022-12-07T04:42:28;95924.16;;;0.77;97.50
68508;BME280;55510;49.560;19.090;2022-12-07T04:45:28;95920.72;;;0.77;97.73
68508;BME280;55510;49.560;19.090;2022-12-07T04:48:29;95911.47;;;0.74;97.82
68508;BME280;55510;49.560;19.090;2022-12-07T04:51:30;95916.88;;;0.72;98.15
68508;BME280;55510;49.560;19.090;2022-12-07T04:54:31;95917.25;;;0.69;98.35
68508;BME280;55510;49.560;19.090;2022-12-07T04:57:31;95916.31;;;0.77;97.85
68508;BME280;55510;49.560;19.090;2022-12-07T05:00:32;95913.88;;;0.76;97.38
68508;BME280;55510;49.560;19.090;2022-12-07T05:03:33;95924.34;;;0.76;97.06
68508;BME280;55510;49.560;19.090;2022-12-07T05:06:34;95911.25;;;0.76;97.72
68508;BME280;55510;49.560;19.090;2022-12-07T05:09:34;95917.69;;;0.73;97.37
68508;BME280;55510;49.560;19.090;2022-12-07T05:12:35;95915.69;;;0.75;97.01
68508;BME280;55510;49.560;19.090;2022-12-07T05:15:36;95922.94;;;0.73;97.23
68508;BME280;55510;49.560;19.090;2022-12-07T05:18:37;95918.69;;;0.72;97.37
68508;BME280;55510;49.560;19.090;2022-12-07T05:21:38;95921.72;;;0.69;97.48
68508;BME280;55510;49.560;19.090;2022-12-07T05:24:38;95920.28;;;0.66;97.82
68508;BME280;55510;49.560;19.090;2022-12-07T05:27:39;95919.28;;;0.67;97.54
68508;BME280;55510;49.560;19.090;2022-12-07T05:30:40;95919.28;;;0.67;97.43
68508;BME280;55510;49.560;19.090;2022-12-07T05:33:41;95918.88;;;0.70;96.62
68508;BME280;55510;49.560;19.090;2022-12-07T05:36:41;95922.31;;;0.71;96.83
68508;BME280;55510;49.560;19.090;2022-12-07T05:39:42;95918.69;;;0.72;96.63
68508;BME280;55510;49.560;19.090;2022-12-07T05:42:43;95924.50;;;0.67;97.04
68508;BME280;55510;49.560;19.090;2022-12-07T05:45:43;95928.13;;;0.66;97.17
68508;BME280;55510;49.560;19.090;2022-12-07T05:48:44;95924.31;;;0.69;97.06
68508;BME280;55510;49.560;19.090;2022-12-07T05:51:45;95930.13;;;0.64;96.84
68508;BME280;55510;49.560;19.090;2022-12-07T05:54:45;95927.91;;;0.61;96.97
68508;BME280;55510;49.560;19.090;2022-12-07T05:57:46;95931.28;;;0.55;97.44
68508;BME280;55510;49.560;19.090;2022-12-07T06:01:05;95935.28;;;0.51;98.00
68508;BME280;55510;49.560;19.090;2022-12-07T06:04:06;95935.28;;;0.51;98.14
68508;BME280;55510;49.560;19.090;2022-12-07T06:07:08;95937.31;;;0.55;97.71
68508;BME280;55510;49.560;19.090;2022-12-07T06:10:09;95932.66;;;0.51;97.68
68508;BME280;55510;49.560;19.090;2022-12-07T06:13:10;95936.06;;;0.45;98.38
68508;BME280;55510;49.560;19.090;2022-12-07T06:16:10;95933.06;;;0.48;98.44
68508;BME280;55510;49.560;19.090;2022-12-07T06:19:11;95934.84;;;0.47;98.33
68508;BME280;55510;49.560;19.090;2022-12-07T06:22:12;95934.41;;;0.43;98.64
68508;BME280;55510;49.560;19.090;2022-12-07T06:25:13;95933.38;;;0.38;98.83
68508;BME280;55510;49.560;19.090;2022-12-07T06:28:13;95941.63;;;0.41;98.74
68508;BME280;55510;49.560;19.090;2022-12-07T06:31:14;95940.41;;;0.37;98.55
68508;BME280;55510;49.560;19.090;2022-12-07T06:34:18;95939.53;;;0.30;99.47
68508;BME280;55510;49.560;19.090;2022-12-07T06:37:19;95936.38;;;0.35;99.34
68508;BME280;55510;49.560;19.090;2022-12-07T06:40:20;95938.16;;;0.34;99.59
68508;BME280;55510;49.560;19.090;2022-12-07T06:43:21;95945.59;;;0.31;99.32
68508;BME280;55510;49.560;19.090;2022-12-07T06:46:21;95942.38;;;0.28;100.00
68508;BME280;55510;49.560;19.090;2022-12-07T06:49:22;95943.53;;;0.26;100.00
68508;BME280;55510;49.560;19.090;2022-12-07T06:52:23;95949.41;;;0.28;100.00
68508;BME280;55510;49.560;19.090;2022-12-07T06:55:24;95945.16;;;0.27;99.89
68508;BME280;55510;49.560;19.090;2022-12-07T06:58:24;95952.84;;;0.28;99.95
68508;BME280;55510;49.560;19.090;2022-12-07T07:01:25;95952.84;;;0.28;99.70
68508;BME280;55510;49.560;19.090;2022-12-07T07:04:26;95962.09;;;0.31;99.88
68508;BME280;55510;49.560;19.090;2022-12-07T07:07:28;95961.34;;;0.37;98.97
68508;BME280;55510;49.560;19.090;2022-12-07T07:10:29;95958.09;;;0.35;98.79
68508;BME280;55510;49.560;19.090;2022-12-07T07:13:30;95964.97;;;0.36;98.75
68508;BME280;55510;49.560;19.090;2022-12-07T07:16:31;95972.19;;;0.34;98.57
68508;BME280;55510;49.560;19.090;2022-12-07T07:19:32;95969.03;;;0.39;98.51
68508;BME280;55510;49.560;19.090;2022-12-07T07:22:32;95966.56;;;0.37;98.66
68508;BME280;55510;49.560;19.090;2022-12-07T07:25:33;95969.03;;;0.39;98.40
68508;BME280;55510;49.560;19.090;2022-12-07T07:28:34;95962.78;;;0.40;98.22
68508;BME280;55510;49.560;19.090;2022-12-07T07:31:35;95967.81;;;0.41;97.84
68508;BME280;55510;49.560;19.090;2022-12-07T07:34:35;95972.31;;;0.48;97.62
68508;BME280;55510;49.560;19.090;2022-12-07T07:37:36;95966.69;;;0.51;96.56
68508;BME280;55510;49.560;19.090;2022-12-07T07:40:37;95960.84;;;0.49;96.94
68508;BME280;55510;49.560;19.090;2022-12-07T07:43:40;95967.88;;;0.48;97.07
68508;BME280;55510;49.560;19.090;2022-12-07T07:46:41;95970.50;;;0.48;97.50
68508;BME280;55510;49.560;19.090;2022-12-07T07:49:42;95975.56;;;0.50;97.37
68508;BME280;55510;49.560;19.090;2022-12-07T07:52:43;95978.41;;;0.55;96.93
68508;BME280;55510;49.560;19.090;2022-12-07T07:55:51;95979.22;;;0.55;97.04
68508;BME280;55510;49.560;19.090;2022-12-07T07:58:52;95986.88;;;0.57;97.16
68508;BME280;55510;49.560;19.090;2022-12-07T08:01:53;95985.06;;;0.57;96.46
68508;BME280;55510;49.560;19.090;2022-12-07T08:04:54;95993.91;;;0.56;96.49
68508;BME280;55510;49.560;19.090;2022-12-07T08:07:54;96006.22;;;0.56;96.01
68508;BME280;55510;49.560;19.090;2022-12-07T08:10:55;96000.97;;;0.56;96.29
68508;BME280;55510;49.560;19.090;2022-12-07T08:13:56;96010.22;;;0.52;96.55
68508;BME280;55510;49.560;19.090;2022-12-07T08:16:57;96000.16;;;0.55;97.31
68508;BME280;55510;49.560;19.090;2022-12-07T08:19:57;96005.41;;;0.55;97.05
68508;BME280;55510;49.560;19.090;2022-12-07T08:22:58;96006.84;;;0.58;96.35
68508;BME280;55510;49.560;19.090;2022-12-07T08:26:04;96005.25;;;0.64;97.47
68508;BME280;55510;49.560;19.090;2022-12-07T08:29:05;96013.16;;;0.70;96.76
68508;BME280;55510;49.560;19.090;2022-12-07T08:32:05;96007.13;;;0.70;95.83
68508;BME280;55510;49.560;19.090;2022-12-07T08:35:07;96001.06;;;0.69;95.65
68508;BME280;55510;49.560;19.090;2022-12-07T08:38:08;96007.16;;;0.77;95.63
68508;BME280;55510;49.560;19.090;2022-12-07T08:41:09;96008.03;;;0.84;96.10
68508;BME280;55510;49.560;19.090;2022-12-07T08:44:10;96018.56;;;0.91;96.00
68508;BME280;55510;49.560;19.090;2022-12-07T08:47:11;96014.94;;;0.92;96.26
68508;BME280;55510;49.560;19.090;2022-12-07T08:50:12;96016.59;;;0.99;95.29
68508;BME280;55510;49.560;19.090;2022-12-07T08:53:13;96026.94;;;1.08;94.94
68508;BME280;55510;49.560;19.090;2022-12-07T08:56:14;96020.25;;;1.05;93.75
68508;BME280;55510;49.560;19.090;2022-12-07T08:59:16;96019.31;;;1.13;94.71
68508;BME280;55510;49.560;19.090;2022-12-07T09:02:18;96019.13;;;1.21;94.80
68508;BME280;55510;49.560;19.090;2022-12-07T09:05:19;96018.63;;;1.33;94.45
68508;BME280;55510;49.560;19.090;2022-12-07T09:08:21;96018.25;;;1.42;93.65
68508;BME280;55510;49.560;19.090;2022-12-07T09:11:23;96003.50;;;1.41;93.26
68508;BME280;55510;49.560;19.090;2022-12-07T09:14:24;96007.56;;;1.44;93.02
68508;BME280;55510;49.560;19.090;2022-12-07T09:17:24;96006.13;;;1.41;92.40
68508;BME280;55510;49.560;19.090;2022-12-07T09:20:25;96002.09;;;1.39;92.38
68508;BME280;55510;49.560;19.090;2022-12-07T09:23:26;96001.88;;;1.34;92.44
68508;BME280;55510;49.560;19.090;2022-12-07T09:26:26;96004.72;;;1.39;91.27
68508;BME280;55510;49.560;19.090;2022-12-07T09:29:27;95992.41;;;1.39;90.70
68508;BME280;55510;49.560;19.090;2022-12-07T09:32:28;95988.22;;;1.45;91.08
68508;BME280;55510;49.560;19.090;2022-12-07T09:35:28;96001.94;;;1.54;89.85
68508;BME280;55510;49.560;19.090;2022-12-07T09:38:29;95997.56;;;1.61;89.18
68508;BME280;55510;49.560;19.090;2022-12-07T09:41:31;95993.06;;;1.48;89.92
68508;BME280;55510;49.560;19.090;2022-12-07T09:44:33;95990.66;;;1.53;89.32
68508;BME280;55510;49.560;19.090;2022-12-07T09:47:35;95994.84;;;1.41;89.28
68508;BME280;55510;49.560;19.090;2022-12-07T09:50:35;95995.78;;;1.26;89.53
68508;BME280;55510;49.560;19.090;2022-12-07T09:53:37;95996.22;;;1.30;90.51
68508;BME280;55510;49.560;19.090;2022-12-07T09:56:40;95997.16;;;1.22;90.54
68508;BME280;55510;49.560;19.090;2022-12-07T09:59:41;95998.56;;;1.18;90.98
68508;BME280;55510;49.560;19.090;2022-12-07T10:02:44;95990.91;;;1.17;91.47
68508;BME280;55510;49.560;19.090;2022-12-07T10:05:48;95986.91;;;1.27;91.47
68508;BME280;55510;49.560;19.090;2022-12-07T10:08:49;95984.88;;;1.23;90.78
68508;BME280;55510;49.560;19.090;2022-12-07T10:12:04;95990.91;;;1.23;91.27
68508;BME280;55510;49.560;19.090;2022-12-07T10:15:06;95984.44;;;1.19;90.58
68508;BME280;55510;49.560;19.090;2022-12-07T10:18:28;95989.75;;;1.26;90.17
68508;BME280;55510;49.560;19.090;2022-12-07T10:21:29;95984.50;;;1.26;89.28
68508;BME280;55510;49.560;19.090;2022-12-07T10:24:30;95980.03;;;1.26;90.08
68508;BME280;55510;49.560;19.090;2022-12-07T10:27:32;95967.56;;;1.28;89.63
68508;BME280;55510;49.560;19.090;2022-12-07T10:30:46;95967.94;;;1.25;89.57
68508;BME280;55510;49.560;19.090;2022-12-07T10:33:58;95965.72;;;1.22;90.43
68508;BME280;55510;49.560;19.090;2022-12-07T10:43:28;95959.53;;;1.43;89.94
68508;BME280;55510;49.560;19.090;2022-12-07T10:50:10;95947.28;;;1.57;88.03
68508;BME280;55510;49.560;19.090;2022-12-07T10:59:56;95941.66;;;1.61;86.43
68508;BME280;55510;49.560;19.090;2022-12-07T11:03:29;95935.88;;;1.85;83.78
68508;BME280;55510;49.560;19.090;2022-12-07T11:06:47;95942.38;;;2.10;84.23
68508;BME280;55510;49.560;19.090;2022-12-07T11:09:56;95940.94;;;2.27;81.46
68508;BME280;55510;49.560;19.090;2022-12-07T11:32:39;95925.38;;;1.92;82.50
68508;BME280;55510;49.560;19.090;2022-12-07T11:42:22;95924.31;;;1.73;80.37
68508;BME280;55510;49.560;19.090;2022-12-07T11:45:33;95917.66;;;1.64;81.30
68508;BME280;55510;49.560;19.090;2022-12-07T11:52:04;95920.06;;;1.58;80.21
68508;BME280;55510;49.560;19.090;2022-12-07T11:55:19;95928.13;;;1.50;80.98
68508;BME280;55510;49.560;19.090;2022-12-07T12:01:38;95922.84;;;1.43;80.08
68508;BME280;55510;49.560;19.090;2022-12-07T12:05:01;95925.25;;;1.38;80.21
68508;BME280;55510;49.560;19.090;2022-12-07T12:08:15;95925.22;;;1.32;79.43
68508;BME280;55510;49.560;19.090;2022-12-07T12:15:22;95916.38;;;1.33;79.88
68508;BME280;55510;49.560;19.090;2022-12-07T12:21:30;95928.50;;;1.47;77.29
68508;BME280;55510;49.560;19.090;2022-12-07T12:24:33;95927.72;;;1.53;78.50
68508;BME280;55510;49.560;19.090;2022-12-07T12:27:38;95930.53;;;1.52;77.81
68508;BME280;55510;49.560;19.090;2022-12-07T12:30:40;95923.25;;;1.47;78.37
68508;BME280;55510;49.560;19.090;2022-12-07T12:33:52;95924.09;;;1.54;78.21
68508;BME280;55510;49.560;19.090;2022-12-07T12:36:53;95913.56;;;1.48;79.05
68508;BME280;55510;49.560;19.090;2022-12-07T12:53:26;95929.69;;;1.44;78.60
68508;BME280;55510;49.560;19.090;2022-12-07T12:56:32;95923.06;;;1.49;78.07
68508;BME280;55510;49.560;19.090;2022-12-07T13:02:54;95935.59;;;1.53;77.72
68508;BME280;55510;49.560;19.090;2022-12-07T13:06:47;95936.38;;;1.47;77.65
68508;BME280;55510;49.560;19.090;2022-12-07T13:09:43;95930.91;;;1.49;78.18
68508;BME280;55510;49.560;19.090;2022-12-07T13:12:58;95930.56;;;1.58;76.48
68508;BME280;55510;49.560;19.090;2022-12-07T13:22:43;95934.53;;;1.48;76.91
68508;BME280;55510;49.560;19.090;2022-12-07T13:29:10;95938.78;;;1.42;76.79
68508;BME280;55510;49.560;19.090;2022-12-07T13:32:24;95939.31;;;1.30;77.56
68508;BME280;55510;49.560;19.090;2022-12-07T13:35:35;95932.63;;;1.21;78.07
68508;BME280;55510;49.560;19.090;2022-12-07T13:42:23;95940.91;;;1.18;78.24
68508;BME280;55510;49.560;19.090;2022-12-07T13:48:49;95943.50;;;1.18;78.76
68508;BME280;55510;49.560;19.090;2022-12-07T13:51:51;95938.28;;;1.18;77.63
68508;BME280;55510;49.560;19.090;2022-12-07T13:55:01;95938.84;;;1.07;78.53
68508;BME280;55510;49.560;19.090;2022-12-07T13:58:08;95943.47;;;1.05;78.92
68508;BME280;55510;49.560;19.090;2022-12-07T14:01:09;95944.69;;;1.09;79.02
68508;BME280;55510;49.560;19.090;2022-12-07T14:04:35;95944.47;;;1.10;78.81
68508;BME280;55510;49.560;19.090;2022-12-07T14:07:48;95955.56;;;1.06;78.17
68508;BME280;55510;49.560;19.090;2022-12-07T14:10:55;95956.94;;;1.01;78.62
68508;BME280;55510;49.560;19.090;2022-12-07T14:13:59;95953.09;;;0.97;79.02
68508;BME280;55510;49.560;19.090;2022-12-07T14:17:17;95956.94;;;1.01;78.86
68508;BME280;55510;49.560;19.090;2022-12-07T14:20:38;95948.25;;;0.94;78.64
68508;BME280;55510;49.560;19.090;2022-12-07T14:23:40;95947.03;;;0.90;79.30
68508;BME280;55510;49.560;19.090;2022-12-07T14:26:42;95951.25;;;0.91;78.85
68508;BME280;55510;49.560;19.090;2022-12-07T14:29:43;95948.03;;;0.89;79.51
68508;BME280;55510;49.560;19.090;2022-12-07T14:32:44;95946.75;;;0.85;79.83
68508;BME280;55510;49.560;19.090;2022-12-07T14:35:48;95953.63;;;0.86;79.69
68508;BME280;55510;49.560;19.090;2022-12-07T14:38:49;95949.16;;;0.80;79.98
68508;BME280;55510;49.560;19.090;2022-12-07T14:41:50;95954.84;;;0.83;79.82
68508;BME280;55510;49.560;19.090;2022-12-07T14:44:51;95951.97;;;0.78;80.39
68508;BME280;55510;49.560;19.090;2022-12-07T14:47:52;95952.44;;;0.89;79.90
68508;BME280;55510;49.560;19.090;2022-12-07T14:50:52;95944.91;;;0.79;80.82
68508;BME280;55510;49.560;19.090;2022-12-07T14:53:53;95956.84;;;0.81;80.86
68508;BME280;55510;49.560;19.090;2022-12-07T14:56:54;95960.63;;;0.79;81.23
68508;BME280;55510;49.560;19.090;2022-12-07T14:59:55;95955.84;;;0.82;80.90
68508;BME280;55510;49.560;19.090;2022-12-07T15:02:56;95956.41;;;0.78;81.20
68508;BME280;55510;49.560;19.090;2022-12-07T15:05:57;95957.25;;;0.85;81.26
68508;BME280;55510;49.560;19.090;2022-12-07T15:09:00;95957.84;;;0.80;81.15
68508;BME280;55510;49.560;19.090;2022-12-07T15:12:00;95958.22;;;0.77;81.21
68508;BME280;55510;49.560;19.090;2022-12-07T15:15:01;95962.47;;;0.78;81.26
68508;BME280;55510;49.560;19.090;2022-12-07T15:18:02;95968.47;;;0.72;82.19
68508;BME280;55510;49.560;19.090;2022-12-07T15:21:03;95966.03;;;0.70;82.39
68508;BME280;55510;49.560;19.090;2022-12-07T15:24:04;95964.78;;;0.66;82.57
68508;BME280;55510;49.560;19.090;2022-12-07T15:27:05;95967.66;;;0.71;82.48
68508;BME280;55510;49.560;19.090;2022-12-07T15:30:06;95966.84;;;0.71;82.63
68508;BME280;55510;49.560;19.090;2022-12-07T15:33:07;95963.63;;;0.76;81.71
68508;BME280;55510;49.560;19.090;2022-12-07T15:36:08;95965.84;;;0.72;82.50
68508;BME280;55510;49.560;19.090;2022-12-07T15:39:14;95969.09;;;0.81;81.61
68508;BME280;55510;49.560;19.090;2022-12-07T15:42:14;95971.50;;;0.76;82.40
68508;BME280;55510;49.560;19.090;2022-12-07T15:45:19;95973.13;;;0.77;82.79
68508;BME280;55510;49.560;19.090;2022-12-07T15:48:23;95966.03;;;0.70;82.91
68508;BME280;55510;49.560;19.090;2022-12-07T15:51:24;95973.25;;;0.68;82.86
68508;BME280;55510;49.560;19.090;2022-12-07T15:54:27;95974.13;;;0.76;82.52
68508;BME280;55510;49.560;19.090;2022-12-07T15:57:29;95979.78;;;0.79;82.14
68508;BME280;55510;49.560;19.090;2022-12-07T16:00:32;95982.97;;;0.75;82.07
68508;BME280;55510;49.560;19.090;2022-12-07T16:03:32;95972.88;;;0.71;81.89
68508;BME280;55510;49.560;19.090;2022-12-07T16:06:33;95975.31;;;0.73;81.79
68508;BME280;55510;49.560;19.090;2022-12-07T16:09:34;95975.28;;;0.66;81.87
68508;BME280;55510;49.560;19.090;2022-12-07T16:12:34;95989.81;;;0.69;81.45
68508;BME280;55510;49.560;19.090;2022-12-07T16:15:40;95989.38;;;0.65;81.85
68508;BME280;55510;49.560;19.090;2022-12-07T16:18:42;95990.16;;;0.66;82.43
68508;BME280;55510;49.560;19.090;2022-12-07T16:21:43;95990.53;;;0.63;82.59
68508;BME280;55510;49.560;19.090;2022-12-07T16:24:44;95992.78;;;0.66;82.45
68508;BME280;55510;49.560;19.090;2022-12-07T16:27:45;95992.38;;;0.62;82.58
68508;BME280;55510;49.560;19.090;2022-12-07T16:30:45;95999.06;;;0.71;82.54
68508;BME280;55510;49.560;19.090;2022-12-07T16:33:47;95997.50;;;0.77;81.32
68508;BME280;55510;49.560;19.090;2022-12-07T16:36:47;95992.88;;;0.79;80.83
68508;BME280;55510;49.560;19.090;2022-12-07T16:39:48;95997.44;;;0.70;81.88
68508;BME280;55510;49.560;19.090;2022-12-07T16:42:49;95990.69;;;0.83;81.27
68508;BME280;55510;49.560;19.090;2022-12-07T16:45:50;95986.97;;;0.70;82.04
68508;BME280;55510;49.560;19.090;2022-12-07T16:48:51;95988.81;;;0.70;82.02
68508;BME280;55510;49.560;19.090;2022-12-07T16:51:51;95993.84;;;0.71;81.97
68508;BME280;55510;49.560;19.090;2022-12-07T16:54:52;95997.84;;;0.67;82.57
68508;BME280;55510;49.560;19.090;2022-12-07T16:57:53;95998.59;;;0.61;82.81
68508;BME280;55510;49.560;19.090;2022-12-07T17:00:54;96003.94;;;0.75;81.95
68508;BME280;55510;49.560;19.090;2022-12-07T17:03:56;95997.91;;;0.81;80.92
68508;BME280;55510;49.560;19.090;2022-12-07T17:06:57;96001.06;;;0.69;81.86
68508;BME280;55510;49.560;19.090;2022-12-07T17:09:59;95993.78;;;0.65;82.62
68508;BME280;55510;49.560;19.090;2022-12-07T17:12:59;95988.97;;;0.68;82.53
68508;BME280;55510;49.560;19.090;2022-12-07T17:16:05;95989.53;;;0.64;82.81
68508;BME280;55510;49.560;19.090;2022-12-07T17:19:08;95988.13;;;0.61;83.31
68508;BME280;55510;49.560;19.090;2022-12-07T17:22:09;95992.59;;;0.67;83.11
68508;BME280;55510;49.560;19.090;2022-12-07T17:25:13;95985.50;;;0.61;83.76
68508;BME280;55510;49.560;19.090;2022-12-07T17:28:14;95985.28;;;0.56;83.77
68508;BME280;55510;49.560;19.090;2022-12-07T17:31:16;95988.69;;;0.56;83.48
68508;BME280;55510;49.560;19.090;2022-12-07T17:34:18;95997.75;;;0.54;84.03
68508;BME280;55510;49.560;19.090;2022-12-07T17:37:19;96004.69;;;0.68;82.84
68508;BME280;55510;49.560;19.090;2022-12-07T17:40:19;96002.47;;;0.65;82.76
68508;BME280;55510;49.560;19.090;2022-12-07T17:43:20;96011.56;;;0.69;82.36
68508;BME280;55510;49.560;19.090;2022-12-07T17:46:21;96018.22;;;0.72;82.36
68508;BME280;55510;49.560;19.090;2022-12-07T17:49:22;96014.41;;;0.75;82.73
68508;BME280;55510;49.560;19.090;2022-12-07T17:52:23;96006.69;;;0.66;82.76
68508;BME280;55510;49.560;19.090;2022-12-07T17:55:42;96009.88;;;0.62;83.25
68508;BME280;55510;49.560;19.090;2022-12-07T17:58:43;96011.06;;;0.59;83.77
68508;BME280;55510;49.560;19.090;2022-12-07T18:01:44;96009.88;;;0.62;83.74
68508;BME280;55510;49.560;19.090;2022-12-07T18:04:44;96009.06;;;0.61;84.09
68508;BME280;55510;49.560;19.090;2022-12-07T18:07:47;96008.69;;;0.64;83.85
68508;BME280;55510;49.560;19.090;2022-12-07T18:10:48;96008.31;;;0.67;83.71
68508;BME280;55510;49.560;19.090;2022-12-07T18:13:48;96007.56;;;0.74;82.26
68508;BME280;55510;49.560;19.090;2022-12-07T18:16:49;96007.94;;;0.70;82.06
68508;BME280;55510;49.560;19.090;2022-12-07T18:19:50;96009.94;;;0.68;82.39
68508;BME280;55510;49.560;19.090;2022-12-07T18:22:51;96012.69;;;0.60;83.25